Time;durP1;ratioP1;P1;durP2;ratioP2;P2;SDS_P1;SDS_P2;PMS_P1;PMS_P2;Temp;Humidity;BMP_temperature;BMP_pressure;BME280_temperature;BME280_humidity;BME280_pressure;Samples;Min_cycle;Max_cycle;Signal;HPM_P1;HPM_P2
2021/08/15 00:00:33;;;;;;;15.05;10.07;;;30.80;59.00;;;;;;5008149;28;20041;-68
2021/08/15 00:02:59;;;;;;;14.15;9.90;;;30.90;59.10;;;;;;5023646;28;20147;-68
2021/08/15 00:05:24;;;;;;;11.98;9.20;;;30.80;59.00;;;;;;5024493;28;20048;-68
2021/08/15 00:07:50;;;;;;;13.40;9.40;;;30.80;59.00;;;;;;5026218;28;20033;-68
2021/08/15 00:10:16;;;;;;;9.35;8.43;;;30.70;59.10;;;;;;5025861;28;20041;-67
2021/08/15 00:12:41;;;;;;;17.13;9.57;;;30.60;59.40;;;;;;5028332;28;20463;-66
2021/08/15 00:15:09;;;;;;;10.75;9.63;;;30.60;59.70;;;;;;5016796;28;20456;-68
2021/08/15 00:17:35;;;;;;;11.40;10.10;;;30.60;59.80;;;;;;5028490;28;20079;-68
2021/08/15 00:20:03;;;;;;;10.73;9.30;;;30.60;59.70;;;;;;5020053;28;20053;-68
2021/08/15 00:22:28;;;;;;;13.57;10.32;;;30.60;59.60;;;;;;5029154;28;20044;-68
2021/08/15 00:24:55;;;;;;;11.35;9.98;;;30.60;59.90;;;;;;5022656;28;20049;-68
2021/08/15 00:27:21;;;;;;;11.63;9.82;;;30.60;60.10;;;;;;5029335;28;20044;-68
2021/08/15 00:29:47;;;;;;;16.60;9.63;;;30.50;59.90;;;;;;5021709;28;20120;-68
2021/08/15 00:32:13;;;;;;;12.85;9.45;;;30.50;59.70;;;;;;5029630;28;20033;-67
2021/08/15 00:34:38;;;;;;;11.02;8.38;;;30.50;59.10;;;;;;5023347;28;20050;-68
2021/08/15 00:37:04;;;;;;;9.95;8.90;;;30.50;59.00;;;;;;5027477;28;20060;-68
2021/08/15 00:39:29;;;;;;;10.05;8.90;;;30.40;58.90;;;;;;5028701;28;20042;-68
2021/08/15 00:41:55;;;;;;;11.68;9.45;;;30.30;58.80;;;;;;5021128;28;20402;-68
2021/08/15 00:44:21;;;;;;;11.45;8.88;;;30.30;59.10;;;;;;5028176;28;20040;-68
2021/08/15 00:46:49;;;;;;;13.57;9.75;;;30.30;58.70;;;;;;5020070;28;20487;-67
2021/08/15 00:49:14;;;;;;;10.70;8.95;;;30.40;58.90;;;;;;5025837;28;22312;-67
2021/08/15 00:51:40;;;;;;;13.23;9.13;;;30.30;58.70;;;;;;5025836;28;20038;-68
2021/08/15 00:54:06;;;;;;;12.48;8.77;;;30.30;58.90;;;;;;5026582;28;20038;-68
2021/08/15 00:56:32;;;;;;;10.60;8.57;;;30.30;59.20;;;;;;5026072;28;21215;-68
2021/08/15 00:58:59;;;;;;;13.90;9.35;;;30.30;59.10;;;;;;5024379;28;20044;-68
2021/08/15 01:01:25;;;;;;;13.25;8.85;;;30.30;59.10;;;;;;5024693;28;20037;-67
2021/08/15 01:03:50;;;;;;;13.48;8.50;;;30.20;58.90;;;;;;5025436;28;20155;-68
2021/08/15 01:06:16;;;;;;;9.80;8.88;;;30.20;59.00;;;;;;5014989;28;20447;-67
2021/08/15 01:08:41;;;;;;;8.43;7.60;;;30.20;59.30;;;;;;5015221;28;20034;-66
2021/08/15 01:11:09;;;;;;;12.50;8.88;;;30.20;59.20;;;;;;5021978;28;20094;-68
2021/08/15 01:13:38;;;;;;;11.63;9.27;;;30.10;59.30;;;;;;5025511;28;20029;-68
2021/08/15 01:16:08;;;;;;;10.77;8.55;;;30.20;59.60;;;;;;5026932;28;20501;-67
2021/08/15 01:18:37;;;;;;;12.27;8.98;;;30.20;59.50;;;;;;5022015;28;20537;-68
2021/08/15 01:21:10;;;;;;;10.60;8.55;;;30.10;60.00;;;;;;5027378;28;20152;-68
2021/08/15 01:23:38;;;;;;;11.52;8.65;;;30.00;60.00;;;;;;5011190;28;20463;-68
2021/08/15 01:26:05;;;;;;;9.52;8.52;;;29.90;59.80;;;;;;5022848;28;20045;-67
2021/08/15 01:28:31;;;;;;;10.50;8.23;;;30.00;60.00;;;;;;5023414;28;20034;-68
2021/08/15 01:30:57;;;;;;;12.20;9.00;;;29.90;60.00;;;;;;5025937;28;20433;-68
2021/08/15 01:33:39;;;;;;;11.45;9.52;;;29.90;60.30;;;;;;5018426;28;20033;-67
2021/08/15 01:36:06;;;;;;;10.10;8.35;;;29.90;62.10;;;;;;5021700;28;20406;-68
2021/08/15 01:38:35;;;;;;;13.25;9.38;;;29.80;60.80;;;;;;5021921;28;20045;-68
2021/08/15 01:41:02;;;;;;;10.32;8.30;;;29.80;61.00;;;;;;5023932;28;20128;-68
2021/08/15 01:43:28;;;;;;;10.23;8.98;;;29.80;61.20;;;;;;5022379;28;20041;-67
2021/08/15 01:45:55;;;;;;;9.82;8.73;;;29.70;61.20;;;;;;5025809;28;20526;-68
2021/08/15 01:48:21;;;;;;;12.13;9.02;;;29.70;61.30;;;;;;5022731;28;20130;-67
2021/08/15 01:50:48;;;;;;;12.52;8.60;;;29.80;61.50;;;;;;5003196;28;20034;-68
2021/08/15 01:53:20;;;;;;;10.50;8.70;;;29.70;60.60;;;;;;5005989;28;20036;-67
2021/08/15 01:55:47;;;;;;;10.50;8.60;;;29.70;61.60;;;;;;5012980;28;20049;-67
2021/08/15 01:58:13;;;;;;;9.30;8.40;;;29.70;61.20;;;;;;5017651;28;20479;-67
2021/08/15 02:00:40;;;;;;;11.15;8.55;;;29.70;61.20;;;;;;5016065;28;20132;-68
2021/08/15 02:03:07;;;;;;;11.40;9.05;;;29.70;61.20;;;;;;5013424;28;20095;-68
2021/08/15 02:05:33;;;;;;;13.77;9.45;;;29.70;61.20;;;;;;5030653;28;20532;-68
2021/08/15 02:07:59;;;;;;;11.20;8.85;;;29.70;61.50;;;;;;5031320;28;20080;-68
2021/08/15 02:10:26;;;;;;;10.10;8.80;;;29.60;61.20;;;;;;5023980;28;20025;-67
2021/08/15 02:12:53;;;;;;;11.68;9.13;;;29.60;61.80;;;;;;5031655;28;20052;-67
2021/08/15 02:15:19;;;;;;;10.10;9.07;;;29.70;62.60;;;;;;5026690;28;20037;-67
2021/08/15 02:17:46;;;;;;;11.93;9.77;;;29.50;63.40;;;;;;5030760;28;20405;-67
2021/08/15 02:20:14;;;;;;;11.65;9.82;;;29.50;63.90;;;;;;5023048;28;20056;-68
2021/08/15 02:22:40;;;;;;;13.27;9.88;;;29.40;64.30;;;;;;5031709;28;20483;-67
2021/08/15 02:25:07;;;;;;;10.15;9.00;;;29.40;64.80;;;;;;5020155;28;20033;-67
2021/08/15 02:27:33;;;;;;;12.55;9.93;;;29.40;65.50;;;;;;5020317;28;20511;-67
2021/08/15 02:29:59;;;;;;;11.65;9.85;;;29.30;66.20;;;;;;5017081;28;20048;-67
2021/08/15 02:32:24;;;;;;;11.23;10.13;;;29.30;65.90;;;;;;5024464;28;20027;-67
2021/08/15 02:34:50;;;;;;;11.68;9.82;;;29.30;65.90;;;;;;5012935;28;20151;-67
2021/08/15 02:37:15;;;;;;;11.35;9.43;;;29.30;66.10;;;;;;5031199;28;20044;-67
2021/08/15 02:39:41;;;;;;;11.93;9.75;;;29.30;66.30;;;;;;5029723;28;20468;-67
2021/08/15 02:42:07;;;;;;;10.57;9.55;;;29.30;66.50;;;;;;5029966;28;20120;-67
2021/08/15 02:44:33;;;;;;;10.52;9.05;;;29.20;66.60;;;;;;5030782;28;20446;-67
2021/08/15 02:46:58;;;;;;;13.05;9.77;;;29.20;66.80;;;;;;5020034;28;20038;-67
2021/08/15 02:49:24;;;;;;;10.90;9.85;;;29.20;67.00;;;;;;5028326;28;20038;-67
2021/08/15 02:51:49;;;;;;;12.27;10.23;;;29.20;66.80;;;;;;5025756;28;20546;-67
2021/08/15 02:54:15;;;;;;;11.68;9.60;;;29.10;67.00;;;;;;5028007;28;20058;-67
2021/08/15 02:56:40;;;;;;;11.77;9.40;;;29.20;67.20;;;;;;5025898;28;20029;-67
2021/08/15 02:59:06;;;;;;;10.40;9.48;;;29.10;67.30;;;;;;5026690;28;20065;-69
2021/08/15 03:01:32;;;;;;;11.02;9.73;;;29.10;67.60;;;;;;5023000;28;20510;-67
2021/08/15 03:03:57;;;;;;;13.48;9.73;;;29.10;67.80;;;;;;5029092;28;20128;-67
2021/08/15 03:06:23;;;;;;;16.00;10.02;;;29.10;67.70;;;;;;5023787;28;20034;-67
2021/08/15 03:08:48;;;;;;;10.75;9.27;;;29.10;67.70;;;;;;5025008;28;20053;-67
2021/08/15 03:11:14;;;;;;;11.00;9.85;;;29.10;68.00;;;;;;5020574;28;20121;-66
2021/08/15 03:13:39;;;;;;;10.30;9.30;;;29.00;67.80;;;;;;5015940;28;20490;-67
2021/08/15 03:16:05;;;;;;;13.68;9.98;;;29.10;67.80;;;;;;5002947;28;20133;-67
2021/08/15 03:18:30;;;;;;;11.20;10.10;;;29.10;68.00;;;;;;5023601;28;20060;-67
2021/08/15 03:20:56;;;;;;;14.25;10.73;;;29.10;67.80;;;;;;5025917;28;20518;-67
2021/08/15 03:23:22;;;;;;;11.05;9.95;;;29.00;68.10;;;;;;5026178;28;20421;-67
2021/08/15 03:25:47;;;;;;;11.77;9.85;;;28.90;68.30;;;;;;5020059;28;20029;-67
2021/08/15 03:28:13;;;;;;;11.13;9.57;;;28.90;68.90;;;;;;5025843;28;20060;-63
2021/08/15 03:30:38;;;;;;;10.05;9.05;;;28.90;69.00;;;;;;5028677;28;20068;-68
2021/08/15 03:33:04;;;;;;;18.30;10.90;;;28.90;69.30;;;;;;5024320;28;20052;-68
2021/08/15 03:35:30;;;;;;;11.10;9.52;;;28.90;69.30;;;;;;5010736;28;20535;-67
2021/08/15 03:37:55;;;;;;;11.07;10.07;;;28.90;69.50;;;;;;5023661;28;20041;-67
2021/08/15 03:40:21;;;;;;;12.25;11.00;;;28.90;70.00;;;;;;5026761;28;20048;-67
2021/08/15 03:42:46;;;;;;;14.45;11.23;;;28.90;70.90;;;;;;5025390;28;20152;-67
2021/08/15 03:45:12;;;;;;;13.43;11.80;;;28.90;71.30;;;;;;5027209;28;20038;-68
2021/08/15 03:47:37;;;;;;;11.98;10.88;;;28.90;72.10;;;;;;5022057;28;20094;-67
2021/08/15 03:50:08;;;;;;;13.05;11.73;;;28.80;72.30;;;;;;5023415;28;20041;-67
2021/08/15 03:59:24;;;;;;;12.13;10.88;;;28.90;74.90;;;;;;4935865;28;20093;-67
2021/08/15 04:01:50;;;;;;;13.85;11.88;;;28.70;73.40;;;;;;4983984;28;20039;-67
2021/08/15 04:04:15;;;;;;;13.52;11.85;;;28.70;74.20;;;;;;4964096;28;20477;-67
2021/08/15 04:06:42;;;;;;;13.23;11.13;;;28.60;74.40;;;;;;4977521;28;20062;-67
2021/08/15 04:09:08;;;;;;;14.45;11.93;;;28.70;74.30;;;;;;4971171;28;20049;-67
2021/08/15 04:11:33;;;;;;;13.05;11.35;;;28.70;73.80;;;;;;4972730;28;20042;-67
2021/08/15 04:13:59;;;;;;;13.23;11.95;;;28.70;73.90;;;;;;4982434;28;20390;-67
2021/08/15 04:16:24;;;;;;;13.20;12.00;;;28.70;74.80;;;;;;4980510;28;20049;-67
2021/08/15 04:18:50;;;;;;;14.40;12.63;;;28.70;75.50;;;;;;4981126;28;20691;-67
2021/08/15 04:21:16;;;;;;;15.45;12.35;;;28.70;75.60;;;;;;4982140;28;20034;-67
2021/08/15 04:23:41;;;;;;;15.45;11.82;;;28.70;75.80;;;;;;4985422;28;20108;-68
2021/08/15 04:26:26;;;;;;;15.07;13.25;;;28.70;75.80;;;;;;4980901;28;20053;-68
2021/08/15 04:28:52;;;;;;;12.45;11.30;;;28.70;76.50;;;;;;4948210;28;20034;-67
2021/08/15 04:31:17;;;;;;;12.13;10.70;;;28.50;75.80;;;;;;4979724;28;20041;-67
2021/08/15 04:33:43;;;;;;;13.10;11.55;;;28.50;75.70;;;;;;4983455;28;20093;-65
2021/08/15 04:36:08;;;;;;;13.60;11.82;;;28.40;76.20;;;;;;4976902;28;20048;-68
2021/08/15 04:38:34;;;;;;;13.50;12.10;;;28.40;77.00;;;;;;4968871;28;20057;-67
2021/08/15 04:41:00;;;;;;;14.43;11.48;;;28.40;77.30;;;;;;4969085;28;20065;-67
2021/08/15 04:43:25;;;;;;;13.43;11.95;;;28.40;77.20;;;;;;4985431;28;20034;-67
2021/08/15 04:45:51;;;;;;;15.20;12.20;;;28.40;77.00;;;;;;4984130;28;20389;-67
2021/08/15 04:48:16;;;;;;;14.32;12.70;;;28.40;77.20;;;;;;4983993;28;20117;-66
2021/08/15 04:50:43;;;;;;;13.43;12.13;;;28.30;78.00;;;;;;4979497;28;20039;-68
2021/08/15 04:53:08;;;;;;;13.45;12.05;;;28.50;78.40;;;;;;4980331;28;20131;-67
2021/08/15 04:55:35;;;;;;;12.45;11.25;;;28.40;77.90;;;;;;4971873;28;20133;-67
2021/08/15 04:58:02;;;;;;;13.32;12.00;;;28.50;78.30;;;;;;4992505;28;20174;-67
2021/08/15 05:00:28;;;;;;;13.77;12.00;;;28.30;78.10;;;;;;4998204;28;20129;-67
2021/08/15 05:02:53;;;;;;;13.80;12.35;;;28.40;78.20;;;;;;4991458;28;20125;-67
2021/08/15 05:05:19;;;;;;;21.15;13.25;;;28.30;78.30;;;;;;4985600;28;20101;-67
2021/08/15 05:07:45;;;;;;;14.68;11.77;;;28.30;78.50;;;;;;4994234;28;20026;-67
2021/08/15 05:10:10;;;;;;;13.82;11.93;;;28.40;77.90;;;;;;5005600;28;20045;-68
2021/08/15 05:12:36;;;;;;;16.25;11.68;;;28.40;77.80;;;;;;4996202;28;20035;-68
2021/08/15 05:15:02;;;;;;;11.77;10.68;;;28.30;78.00;;;;;;4991608;28;20077;-67
2021/08/15 05:17:27;;;;;;;12.98;11.52;;;28.40;77.40;;;;;;4989267;28;20488;-67
2021/08/15 05:19:53;;;;;;;12.68;11.45;;;28.40;77.00;;;;;;4993957;28;20037;-67
2021/08/15 05:22:18;;;;;;;12.20;10.82;;;28.50;76.60;;;;;;4991949;28;20034;-67
2021/08/15 05:24:44;;;;;;;12.52;10.63;;;28.40;76.40;;;;;;4987320;28;20270;-66
2021/08/15 05:27:10;;;;;;;13.48;10.13;;;28.50;76.10;;;;;;4996482;28;20034;-67
2021/08/15 05:29:35;;;;;;;12.73;10.10;;;28.40;76.50;;;;;;4980671;28;20430;-68
2021/08/15 05:32:01;;;;;;;13.82;11.38;;;28.40;76.20;;;;;;4992666;28;20042;-68
2021/08/15 05:34:26;;;;;;;13.98;10.32;;;28.50;75.60;;;;;;5000210;28;20077;-67
2021/08/15 05:36:52;;;;;;;12.80;11.50;;;28.50;75.00;;;;;;4996172;28;20524;-67
2021/08/15 05:39:18;;;;;;;12.02;10.80;;;28.60;75.50;;;;;;4997894;28;20047;-68
2021/08/15 05:41:44;;;;;;;14.93;11.15;;;28.50;75.50;;;;;;5000196;28;20022;-66
2021/08/15 05:44:09;;;;;;;11.98;10.77;;;28.60;75.90;;;;;;5004131;28;20740;-68
2021/08/15 05:46:35;;;;;;;13.38;10.38;;;28.50;75.60;;;;;;4994252;28;20041;-67
2021/08/15 05:49:00;;;;;;;11.73;10.50;;;28.60;75.70;;;;;;4993221;28;20087;-68
2021/08/15 05:51:26;;;;;;;15.63;11.10;;;28.70;75.10;;;;;;5018893;28;20026;-67
2021/08/15 05:53:52;;;;;;;11.82;10.60;;;28.60;74.70;;;;;;4994162;28;20033;-67
2021/08/15 05:56:17;;;;;;;13.38;10.77;;;28.70;74.90;;;;;;4993255;28;20084;-67
2021/08/15 05:58:43;;;;;;;13.55;10.27;;;28.70;74.80;;;;;;4975827;28;20146;-67
2021/08/15 06:01:09;;;;;;;10.73;9.25;;;28.70;74.50;;;;;;4977327;28;20389;-67
2021/08/15 06:03:34;;;;;;;10.90;9.73;;;28.70;72.00;;;;;;4966675;28;20053;-68
2021/08/15 06:06:00;;;;;;;10.90;9.68;;;28.80;73.20;;;;;;4986020;28;20030;-67
2021/08/15 06:08:25;;;;;;;10.00;9.13;;;28.90;72.70;;;;;;4980094;28;20058;-67
2021/08/15 06:10:53;;;;;;;11.00;8.90;;;29.00;72.20;;;;;;4982331;28;20035;-67
2021/08/15 06:13:19;;;;;;;9.55;8.30;;;29.00;70.80;;;;;;4981996;28;20045;-67
2021/08/15 06:15:45;;;;;;;13.40;9.18;;;29.00;68.50;;;;;;4988808;28;20042;-67
2021/08/15 06:18:10;;;;;;;8.95;7.97;;;28.90;67.90;;;;;;4978365;28;20133;-68
2021/08/15 06:20:36;;;;;;;10.98;8.32;;;28.90;66.60;;;;;;4975118;28;21373;-68
2021/08/15 06:23:02;;;;;;;10.10;9.02;;;29.00;66.90;;;;;;4978751;28;20038;-67
2021/08/15 06:25:27;;;;;;;13.52;7.97;;;28.90;65.30;;;;;;4968890;28;20034;-67
2021/08/15 06:27:53;;;;;;;12.63;8.45;;;29.00;65.20;;;;;;4984490;28;20456;-67
2021/08/15 06:30:21;;;;;;;12.57;9.07;;;29.00;65.10;;;;;;4964117;28;20042;-67
2021/08/15 06:32:49;;;;;;;11.40;8.63;;;29.10;64.80;;;;;;4971553;28;20365;-66
2021/08/15 06:35:18;;;;;;;12.30;8.35;;;29.10;64.50;;;;;;4979264;28;20043;-67
2021/08/15 06:37:45;;;;;;;10.88;8.70;;;29.00;64.40;;;;;;4987570;28;20432;-67
2021/08/15 06:40:11;;;;;;;13.30;9.07;;;29.10;63.90;;;;;;4964182;28;20101;-67
2021/08/15 06:42:37;;;;;;;14.05;8.50;;;29.00;64.10;;;;;;4981355;28;20046;-67
2021/08/15 06:45:03;;;;;;;15.15;9.27;;;29.00;64.70;;;;;;4983342;28;20567;-67
2021/08/15 06:47:29;;;;;;;10.75;9.38;;;29.00;64.50;;;;;;4993760;28;20088;-67
2021/08/15 06:49:54;;;;;;;11.32;9.00;;;29.00;64.50;;;;;;4985389;28;20059;-67
2021/08/15 06:52:20;;;;;;;11.38;9.40;;;29.10;64.80;;;;;;4977575;28;20388;-67
2021/08/15 06:54:45;;;;;;;10.60;9.45;;;29.10;64.80;;;;;;4975876;28;20058;-67
2021/08/15 06:57:11;;;;;;;12.70;9.93;;;29.20;64.50;;;;;;4977571;28;20047;-67
2021/08/15 06:59:36;;;;;;;16.17;9.65;;;29.20;64.40;;;;;;5007369;28;20576;-68
2021/08/15 07:02:02;;;;;;;13.48;9.52;;;29.30;64.40;;;;;;5030667;28;20385;-67
2021/08/15 07:04:28;;;;;;;11.30;9.95;;;29.30;64.50;;;;;;5031545;28;20141;-67
2021/08/15 07:06:53;;;;;;;11.70;9.25;;;29.30;64.70;;;;;;5023211;28;20030;-67
2021/08/15 07:09:19;;;;;;;16.65;10.23;;;29.40;64.20;;;;;;5012179;28;20511;-67
2021/08/15 07:11:45;;;;;;;10.98;9.70;;;29.30;64.50;;;;;;5014077;28;20487;-68
2021/08/15 07:14:10;;;;;;;10.48;9.50;;;29.40;64.70;;;;;;5010134;28;20403;-67
2021/08/15 07:16:36;;;;;;;15.48;10.07;;;29.40;64.70;;;;;;5007931;28;20030;-67
2021/08/15 07:19:01;;;;;;;11.90;10.38;;;29.50;64.80;;;;;;5028012;28;20068;-67
2021/08/15 07:21:27;;;;;;;13.18;9.73;;;29.50;64.30;;;;;;5014143;28;20076;-67
2021/08/15 07:23:52;;;;;;;11.90;10.20;;;29.50;64.40;;;;;;5014020;28;20100;-67
2021/08/15 07:26:18;;;;;;;12.35;10.00;;;29.50;64.20;;;;;;5023295;28;20061;-67
2021/08/15 07:28:44;;;;;;;12.57;11.20;;;29.60;64.60;;;;;;5032947;28;20042;-67
2021/08/15 07:31:10;;;;;;;11.63;10.48;;;29.70;64.10;;;;;;5023866;28;20152;-67
2021/08/15 07:33:36;;;;;;;13.82;10.98;;;29.70;64.10;;;;;;5025084;28;20069;-67
2021/08/15 07:36:02;;;;;;;11.77;10.23;;;29.70;64.10;;;;;;5023019;28;20037;-68
2021/08/15 07:38:28;;;;;;;12.00;10.80;;;29.80;64.20;;;;;;5028703;28;20064;-67
2021/08/15 07:40:54;;;;;;;16.20;11.40;;;29.80;63.90;;;;;;5023397;28;20171;-67
2021/08/15 07:43:19;;;;;;;12.98;11.77;;;29.80;63.50;;;;;;5026959;28;20116;-67
2021/08/15 07:45:45;;;;;;;13.73;11.48;;;29.90;63.60;;;;;;5030390;28;20124;-67
2021/08/15 07:48:11;;;;;;;12.23;10.63;;;29.90;63.30;;;;;;5024116;28;20041;-67
2021/08/15 07:50:38;;;;;;;13.40;10.98;;;30.00;63.60;;;;;;5028982;28;20037;-67
2021/08/15 07:53:15;;;;;;;12.60;10.80;;;30.00;63.10;;;;;;5020141;28;20110;-68
2021/08/15 07:55:41;;;;;;;13.05;11.10;;;30.00;62.60;;;;;;5023032;28;20386;-68
2021/08/15 07:58:07;;;;;;;13.18;10.40;;;30.00;62.50;;;;;;5023618;28;20049;-67
2021/08/15 08:00:33;;;;;;;10.98;9.57;;;30.20;62.50;;;;;;5029134;28;20033;-67
2021/08/15 08:02:58;;;;;;;13.45;9.25;;;30.20;62.20;;;;;;5006632;28;20047;-68
2021/08/15 08:05:24;;;;;;;11.32;10.23;;;30.30;62.00;;;;;;5028848;28;20045;-68
2021/08/15 08:07:49;;;;;;;11.35;9.95;;;30.40;61.90;;;;;;5024706;28;20479;-67
2021/08/15 08:10:15;;;;;;;11.43;9.95;;;30.40;61.40;;;;;;5010727;28;20475;-67
2021/08/15 08:12:43;;;;;;;12.30;10.30;;;30.40;60.90;;;;;;5022280;28;20706;-68
2021/08/15 08:15:09;;;;;;;12.90;9.77;;;30.50;60.30;;;;;;5027708;28;20042;-67
2021/08/15 08:17:34;;;;;;;10.00;9.10;;;30.50;60.00;;;;;;5023573;28;20371;-68
2021/08/15 08:20:00;;;;;;;12.82;9.98;;;30.50;59.50;;;;;;5014112;28;20124;-67
2021/08/15 08:22:25;;;;;;;10.73;8.98;;;30.50;59.00;;;;;;5005535;28;20037;-67
2021/08/15 08:24:51;;;;;;;10.60;9.57;;;30.60;58.80;;;;;;5011506;28;20158;-67
2021/08/15 08:27:18;;;;;;;10.57;9.27;;;30.70;59.00;;;;;;5011172;28;20055;-67
2021/08/15 08:29:43;;;;;;;11.45;10.32;;;30.70;58.10;;;;;;5003210;28;20030;-67
2021/08/15 08:32:09;;;;;;;13.35;9.75;;;30.80;58.10;;;;;;5028973;28;20033;-67
2021/08/15 08:34:34;;;;;;;11.50;9.43;;;30.80;58.00;;;;;;5007080;28;20231;-68
2021/08/15 08:37:00;;;;;;;14.98;9.60;;;30.90;57.50;;;;;;5007435;28;20963;-67
2021/08/15 08:39:29;;;;;;;11.32;9.45;;;31.00;57.50;;;;;;5010470;28;20034;-67
2021/08/15 08:41:58;;;;;;;15.90;9.57;;;31.00;57.40;;;;;;5007580;28;20153;-68
2021/08/15 08:44:25;;;;;;;14.32;9.68;;;31.10;57.20;;;;;;4995324;28;20372;-67
2021/08/15 08:46:51;;;;;;;13.00;9.25;;;31.10;56.80;;;;;;5020914;28;20038;-67
2021/08/15 08:49:17;;;;;;;12.80;9.10;;;31.20;56.70;;;;;;5013866;28;20030;-67
2021/08/15 08:51:46;;;;;;;10.65;9.65;;;31.30;56.70;;;;;;5020206;28;20399;-68
2021/08/15 08:54:13;;;;;;;11.43;9.38;;;31.30;56.90;;;;;;5009933;28;21051;-67
2021/08/15 08:56:38;;;;;;;12.70;9.85;;;31.30;56.80;;;;;;5023053;28;20088;-68
2021/08/15 08:59:04;;;;;;;11.55;9.38;;;31.30;56.60;;;;;;5026815;28;20455;-67
2021/08/15 09:01:30;;;;;;;11.43;9.63;;;31.30;56.20;;;;;;5023463;28;20067;-67
2021/08/15 09:03:55;;;;;;;12.43;9.48;;;31.40;56.10;;;;;;5027367;28;20037;-66
2021/08/15 09:06:24;;;;;;;10.18;9.15;;;31.30;56.20;;;;;;5019618;28;20167;-67
2021/08/15 09:08:50;;;;;;;11.55;10.20;;;31.50;55.80;;;;;;5017151;28;20038;-67
2021/08/15 09:11:17;;;;;;;11.43;10.10;;;31.60;56.20;;;;;;5023531;28;20040;-68
2021/08/15 09:13:44;;;;;;;13.80;9.55;;;31.60;55.70;;;;;;5023113;28;20033;-67
2021/08/15 09:16:10;;;;;;;13.45;10.40;;;31.60;55.90;;;;;;5018237;28;20041;-67
2021/08/15 09:18:36;;;;;;;13.52;9.55;;;31.70;55.50;;;;;;5012859;28;20033;-67
2021/08/15 09:21:02;;;;;;;12.55;9.52;;;31.80;55.30;;;;;;5010686;28;20121;-67
2021/08/15 09:23:31;;;;;;;14.35;10.63;;;31.70;55.30;;;;;;5027300;28;20065;-67
2021/08/15 09:26:16;;;;;;;14.50;10.30;;;31.90;55.40;;;;;;5015377;28;20064;-67
2021/08/15 09:28:44;;;;;;;11.73;10.50;;;31.90;55.00;;;;;;5020818;28;20134;-67
2021/08/15 09:31:23;;;;;;;14.15;10.60;;;31.90;55.20;;;;;;5002691;28;20108;-67
2021/08/15 09:33:50;;;;;;;11.73;10.52;;;32.00;55.40;;;;;;5018070;28;20041;-66
2021/08/15 09:36:29;;;;;;;18.35;11.32;;;32.20;55.20;;;;;;5020241;28;20037;-67
2021/08/15 09:39:00;;;;;;;13.02;10.27;;;32.10;55.10;;;;;;4998131;28;20037;-67
2021/08/15 09:41:27;;;;;;;12.60;11.13;;;32.20;55.30;;;;;;5022123;28;20073;-67
2021/08/15 09:44:16;;;;;;;13.20;11.05;;;32.20;55.10;;;;;;5022769;28;20033;-66
2021/08/15 09:47:06;;;;;;;12.55;11.20;;;32.20;55.00;;;;;;5022487;28;20091;-67
2021/08/15 09:49:42;;;;;;;12.00;10.70;;;32.20;54.90;;;;;;5003383;28;20483;-67
2021/08/15 09:52:11;;;;;;;12.57;11.57;;;32.30;54.90;;;;;;5019909;28;20049;-67
2021/08/15 09:54:38;;;;;;;12.63;11.40;;;32.20;54.90;;;;;;5020942;28;20037;-67
2021/08/15 09:57:08;;;;;;;12.57;11.32;;;32.40;55.00;;;;;;5004577;28;20046;-67
2021/08/15 09:59:53;;;;;;;11.70;10.32;;;32.40;54.70;;;;;;5029137;28;20131;-68
2021/08/15 10:02:19;;;;;;;12.27;11.02;;;32.60;53.50;;;;;;5008347;28;20096;-66
2021/08/15 10:04:45;;;;;;;14.00;12.38;;;32.50;54.00;;;;;;5028325;28;20046;-68
2021/08/15 10:07:12;;;;;;;14.77;12.95;;;32.60;54.20;;;;;;5013000;28;20034;-67
2021/08/15 10:09:39;;;;;;;14.27;12.88;;;32.50;55.10;;;;;;5014284;28;20111;-67
2021/08/15 10:12:04;;;;;;;15.63;13.35;;;32.60;55.20;;;;;;5001153;28;20574;-68
2021/08/15 10:14:30;;;;;;;15.63;12.80;;;32.80;55.40;;;;;;5026598;28;20045;-67
2021/08/15 10:17:05;;;;;;;16.40;13.30;;;32.80;55.30;;;;;;5021075;28;20056;-67
2021/08/15 10:19:43;;;;;;;17.75;14.55;;;32.90;55.30;;;;;;5023198;28;20041;-67
2021/08/15 10:22:09;;;;;;;14.63;13.13;;;32.80;55.40;;;;;;5033005;28;20435;-68
2021/08/15 10:24:41;;;;;;;14.88;13.48;;;32.80;56.20;;;;;;5026949;28;20041;-68
2021/08/15 10:27:08;;;;;;;14.27;12.85;;;32.90;55.90;;;;;;5024210;28;20498;-67
2021/08/15 10:29:41;;;;;;;16.23;14.63;;;33.00;55.50;;;;;;5018192;28;20033;-67
2021/08/15 10:32:15;;;;;;;13.48;12.18;;;33.20;54.90;;;;;;5025690;28;20033;-67
2021/08/15 10:34:50;;;;;;;14.13;12.75;;;33.20;54.60;;;;;;5025507;28;20120;-67
2021/08/15 10:37:36;;;;;;;18.80;14.57;;;33.30;54.00;;;;;;5027478;28;20042;-68
2021/08/15 10:40:04;;;;;;;13.90;11.63;;;33.50;52.90;;;;;;4970618;28;20042;-68
2021/08/15 10:42:48;;;;;;;18.88;12.75;;;33.50;53.10;;;;;;5011557;28;20049;-67
2021/08/15 10:45:22;;;;;;;13.25;12.10;;;33.50;52.70;;;;;;5025758;28;20034;-67
2021/08/15 10:48:17;;;;;;;13.50;12.32;;;33.70;52.00;;;;;;5028462;28;20033;-65
2021/08/15 10:50:52;;;;;;;14.43;11.30;;;33.90;51.10;;;;;;4998842;28;20033;-68
2021/08/15 10:53:29;;;;;;;13.32;11.73;;;33.80;51.40;;;;;;5028064;28;20092;-62
2021/08/15 10:55:54;;;;;;;14.43;13.00;;;33.80;50.80;;;;;;5025509;28;20073;-68
2021/08/15 10:58:47;;;;;;;13.70;12.35;;;33.80;50.60;;;;;;5028483;28;20068;-67
2021/08/15 11:01:18;;;;;;;15.65;11.70;;;34.00;48.90;;;;;;5005968;28;20083;-68
2021/08/15 11:03:47;;;;;;;13.13;11.85;;;34.00;49.70;;;;;;5019039;28;20088;-67
2021/08/15 11:06:34;;;;;;;14.77;11.85;;;34.20;49.20;;;;;;5025071;28;20113;-67
2021/08/15 11:09:05;;;;;;;15.10;12.43;;;34.20;48.80;;;;;;4984217;28;20133;-67
2021/08/15 11:11:33;;;;;;;13.07;11.75;;;34.30;48.80;;;;;;5007364;28;20474;-67
2021/08/15 11:14:18;;;;;;;12.63;11.25;;;34.30;48.50;;;;;;5011857;28;20403;-67
2021/08/15 11:16:52;;;;;;;14.95;11.43;;;34.80;46.60;;;;;;5004640;28;20122;-67
2021/08/15 11:19:17;;;;;;;12.93;11.73;;;35.00;45.90;;;;;;5022960;28;20377;-61
2021/08/15 11:22:16;;;;;;;14.32;12.70;;;35.10;46.30;;;;;;5023920;28;20052;-67
2021/08/15 11:24:45;;;;;;;13.80;12.48;;;35.10;45.20;;;;;;5004648;28;20092;-68
2021/08/15 11:27:15;;;;;;;13.18;11.80;;;35.10;45.10;;;;;;5026533;28;20108;-67
2021/08/15 11:29:43;;;;;;;14.30;12.25;;;35.40;45.10;;;;;;5029558;28;20037;-67
2021/08/15 11:32:13;;;;;;;13.50;11.40;;;35.30;44.90;;;;;;5028001;28;20045;-67
2021/08/15 11:34:50;;;;;;;14.07;12.23;;;35.90;44.30;;;;;;5031537;28;20124;-67
2021/08/15 11:37:18;;;;;;;13.15;12.00;;;37.70;40.80;;;;;;5021806;28;20064;-68
2021/08/15 11:39:44;;;;;;;13.95;12.52;;;38.20;39.40;;;;;;5029196;28;20095;-68
2021/08/15 11:42:22;;;;;;;12.93;11.70;;;38.70;38.20;;;;;;5022842;28;20488;-68
2021/08/15 11:44:58;;;;;;;13.57;12.10;;;39.50;35.60;;;;;;5023229;28;20034;-68
2021/08/15 11:47:29;;;;;;;12.48;11.27;;;38.80;35.10;;;;;;4992283;28;20108;-67
2021/08/15 11:49:56;;;;;;;13.85;12.05;;;39.00;35.80;;;;;;5029036;28;20044;-68
2021/08/15 11:52:25;;;;;;;16.38;11.65;;;39.70;34.10;;;;;;5024920;28;20513;-68
2021/08/15 11:54:53;;;;;;;12.43;11.15;;;40.60;31.80;;;;;;5027858;28;20045;-67
2021/08/15 11:57:20;;;;;;;12.32;11.23;;;41.00;31.70;;;;;;5023343;28;20054;-67
2021/08/15 11:59:48;;;;;;;11.13;10.18;;;41.40;35.20;;;;;;5030800;28;20038;-68
2021/08/15 12:02:22;;;;;;;12.85;11.20;;;42.40;34.60;;;;;;5024239;28;20052;-69
2021/08/15 12:04:49;;;;;;;11.93;11.02;;;41.80;31.40;;;;;;5028674;28;20085;-65
2021/08/15 12:07:26;;;;;;;12.43;11.40;;;41.50;34.60;;;;;;5020229;28;20107;-68
2021/08/15 12:10:32;;;;;;;12.25;11.13;;;43.10;33.00;;;;;;5022702;28;20077;-68
2021/08/15 12:13:10;;;;;;;11.57;10.57;;;43.60;34.30;;;;;;4995415;28;20049;-68
2021/08/15 12:15:36;;;;;;;11.60;10.60;;;44.80;24.90;;;;;;5024203;28;20049;-68
2021/08/15 12:18:02;;;;;;;11.20;10.20;;;47.10;24.60;;;;;;5018486;28;20033;-67
2021/08/15 12:20:28;;;;;;;11.18;10.27;;;47.40;23.30;;;;;;5031281;28;20502;-67
2021/08/15 12:23:03;;;;;;;11.65;10.52;;;48.00;22.60;;;;;;4995603;28;20038;-67
2021/08/15 12:25:29;;;;;;;11.13;10.32;;;48.00;22.10;;;;;;5010667;28;20037;-68
2021/08/15 12:28:05;;;;;;;11.30;10.30;;;48.00;21.70;;;;;;5021488;28;20090;-69
2021/08/15 12:30:31;;;;;;;10.68;9.95;;;47.60;21.80;;;;;;5028980;28;20045;-68
2021/08/15 12:32:56;;;;;;;10.38;9.48;;;46.50;21.50;;;;;;5013808;28;20041;-68
2021/08/15 12:35:26;;;;;;;10.90;9.75;;;45.50;21.70;;;;;;5007810;28;20042;-68
2021/08/15 12:37:55;;;;;;;10.52;9.48;;;45.10;21.40;;;;;;5007956;28;20483;-68
2021/08/15 12:40:32;;;;;;;12.55;9.90;;;44.80;22.00;;;;;;5016689;28;20025;-68